Spirit of Dana Point — WDA5763 — position and weather

sailwx.info

Track history (hours):
 
Tides and Currents Weather Stations Pressure Air Temp Water Temp Dewpoint Dewpoint Depression Visibility Wind Speed Wind Dir Waves Ship Positions

Spirit of Dana Point (United States)

Ship's website: http://www.ocean-institute.org/general-information/about-spirit-dana-point

Owner: OCEAN INSTITUTE, DANA POINT, CA. More information available from US FCC via Universal Licensing System and Coast Guard Vessel Documentation Center.

Last reported at 2017-Jun-17 01:51 UTC. Time now 2017-Jun-26 00:17 UTC.
Position N 33°28' W 117°42'.
Warning: this ship's position is 8 days out of date.

Length 37 m.

Type: Ship. MMSI: 366823550.

Date/timePositionNaut miles runAvg speedWind from/ knotsBaromVisibWave heightAir tempDewpointWater temp
2017-Jun-17 01:51N 33°28' W 117°42'0 0.0
2017-Jun-17 01:30N 33°28' W 117°42'1 1.2
2017-Jun-17 01:00N 33°27' W 117°42'2 3.9
2017-Jun-17 00:31N 33°28' W 117°44'1 2.8
2017-Jun-17 00:00N 33°27' W 117°43'1 2.6
2017-Jun-16 23:31N 33°27' W 117°42'1 1.3
2017-Jun-16 23:00N 33°28' W 117°42'0 0.0
2017-Jun-16 22:30N 33°28' W 117°42'0 0.0
2017-Jun-16 22:01N 33°28' W 117°42'0 0.0
2017-Jun-16 21:31N 33°28' W 117°42'0 0.0
2017-Jun-16 21:01N 33°28' W 117°42'0 0.0
2017-Jun-16 20:31N 33°28' W 117°42'0 0.0
2017-Jun-16 20:00N 33°28' W 117°42'0 0.0
2017-Jun-16 19:30N 33°28' W 117°42'0 0.0
2017-Jun-16 19:01N 33°28' W 117°42'0 0.0
2017-Jun-16 18:30N 33°28' W 117°42'0 0.0
2017-Jun-16 18:00N 33°28' W 117°42'0 0.0
2017-Jun-16 17:30N 33°28' W 117°42'0 0.0
2017-Jun-16 17:00N 33°28' W 117°42'0 0.0
2017-Jun-16 16:31N 33°28' W 117°42'0 0.0
2017-Jun-16 16:01N 33°28' W 117°42'0 0.0
2017-Jun-16 15:30N 33°28' W 117°42'0 0.0
2017-Jun-16 15:01N 33°28' W 117°42'0 0.0
2017-Jun-16 14:30N 33°28' W 117°42'0 0.0
2017-Jun-16 13:30N 33°28' W 117°42'0 0.0
2017-Jun-16 13:00N 33°28' W 117°42'0 0.0
2017-Jun-16 12:30N 33°28' W 117°42'0 0.0
2017-Jun-16 12:00N 33°28' W 117°42'0 0.0
2017-Jun-16 11:30N 33°28' W 117°42'0 0.0
2017-Jun-16 11:00N 33°28' W 117°42'0 0.0
2017-Jun-16 10:30N 33°28' W 117°42'0 0.0
2017-Jun-16 10:00N 33°28' W 117°42'0 0.0
2017-Jun-16 09:30N 33°28' W 117°42'0 0.0
2017-Jun-16 09:00N 33°28' W 117°42'0 0.0
2017-Jun-16 08:30N 33°28' W 117°42'0 0.0
2017-Jun-16 08:01N 33°28' W 117°42'0 0.0
2017-Jun-16 07:31N 33°28' W 117°42'0 0.0
2017-Jun-16 07:00N 33°28' W 117°42'0 0.0
2017-Jun-16 06:31N 33°28' W 117°42'0 0.0
2017-Jun-16 06:00N 33°28' W 117°42'0 0.0
2017-Jun-16 05:30N 33°28' W 117°42'0 0.0
2017-Jun-16 05:00N 33°28' W 117°42'0 0.0
2017-Jun-16 04:30N 33°28' W 117°42'0 0.0
2017-Jun-16 04:00N 33°28' W 117°42'0 0.0
2017-Jun-16 03:30N 33°28' W 117°42'0 0.0
2017-Jun-16 02:49N 33°28' W 117°42'0 0.0
2017-Jun-16 02:30N 33°28' W 117°42'0 0.0
2017-Jun-16 02:01N 33°28' W 117°42'0 0.0
2017-Jun-16 01:30N 33°28' W 117°42'0 0.0
2017-Jun-16 01:00N 33°28' W 117°42'0 0.0
2017-Jun-16 00:31N 33°28' W 117°42'0 0.6
2017-Jun-16 00:00N 33°27' W 117°42'2 3.2
2017-Jun-15 23:30N 33°28' W 117°44'4 7.6
2017-Jun-15 23:01N 33°29' W 117°48'4 7.3
2017-Jun-15 22:30N 33°31' W 117°52'4 7.1
2017-Jun-15 22:00N 33°33' W 117°55'4 7.2
2017-Jun-15 21:30N 33°35' W 117°59'1 1.1
2017-Jun-15 21:00N 33°35' W 117°60'3 6.2
2017-Jun-15 20:31N 33°34' W 117°56'3 6.1
2017-Jun-15 20:01N 33°32' W 117°53'3 6.2
2017-Jun-15 19:31N 33°31' W 117°50'3 6.3
2017-Jun-15 19:00N 33°29' W 117°47'3 6.2
2017-Jun-15 18:30N 33°27' W 117°44'1 2.2
2017-Jun-15 18:01N 33°28' W 117°42'0 0.1
2017-Jun-15 17:31N 33°28' W 117°42'0 0.0
2017-Jun-15 17:00N 33°28' W 117°42'0 0.0
2017-Jun-15 16:30N 33°28' W 117°42'0 0.0
2017-Jun-15 16:01N 33°28' W 117°42'0 0.0
2017-Jun-15 15:30N 33°28' W 117°42'0 0.0
2017-Jun-13 22:42N 33°28' W 117°42'  
2017-Jun-09 23:23N 33°28' W 117°42'0 0.0
2017-Jun-09 22:19N 33°28' W 117°42'  
Track history (hours):
 
Tides and Currents Weather Stations Pressure Air Temp Water Temp Dewpoint Dewpoint Depression Visibility Wind Speed Wind Dir Waves Ship Positions

Spirit of Dana Point (United States)

Ship's website: http://www.ocean-institute.org/general-information/about-spirit-dana-point

Owner: OCEAN INSTITUTE, DANA POINT, CA. More information available from US FCC via Universal Licensing System and Coast Guard Vessel Documentation Center.

Last reported at 2017-Jun-17 01:51 UTC. Time now 2017-Jun-26 00:17 UTC.
Position N 33°28' W 117°42'.
Warning: this ship's position is 8 days out of date.

Length 37 m.

Type: Ship. MMSI: 366823550.

Date/timePositionNaut miles runAvg speedWind from/ knotsBaromVisibWave heightAir tempDewpointWater temp
2017-Jun-17 01:51N 33°28' W 117°42'0 0.0
2017-Jun-17 01:30N 33°28' W 117°42'1 1.2
2017-Jun-17 01:00N 33°27' W 117°42'2 3.9
2017-Jun-17 00:31N 33°28' W 117°44'1 2.8
2017-Jun-17 00:00N 33°27' W 117°43'1 2.6
2017-Jun-16 23:31N 33°27' W 117°42'1 1.3
2017-Jun-16 23:00N 33°28' W 117°42'0 0.0
2017-Jun-16 22:30N 33°28' W 117°42'0 0.0
2017-Jun-16 22:01N 33°28' W 117°42'0 0.0
2017-Jun-16 21:31N 33°28' W 117°42'0 0.0
2017-Jun-16 21:01N 33°28' W 117°42'0 0.0
2017-Jun-16 20:31N 33°28' W 117°42'0 0.0
2017-Jun-16 20:00N 33°28' W 117°42'0 0.0
2017-Jun-16 19:30N 33°28' W 117°42'0 0.0
2017-Jun-16 19:01N 33°28' W 117°42'0 0.0
2017-Jun-16 18:30N 33°28' W 117°42'0 0.0
2017-Jun-16 18:00N 33°28' W 117°42'0 0.0
2017-Jun-16 17:30N 33°28' W 117°42'0 0.0
2017-Jun-16 17:00N 33°28' W 117°42'0 0.0
2017-Jun-16 16:31N 33°28' W 117°42'0 0.0
2017-Jun-16 16:01N 33°28' W 117°42'0 0.0
2017-Jun-16 15:30N 33°28' W 117°42'0 0.0
2017-Jun-16 15:01N 33°28' W 117°42'0 0.0
2017-Jun-16 14:30N 33°28' W 117°42'0 0.0
2017-Jun-16 13:30N 33°28' W 117°42'0 0.0
2017-Jun-16 13:00N 33°28' W 117°42'0 0.0
2017-Jun-16 12:30N 33°28' W 117°42'0 0.0
2017-Jun-16 12:00N 33°28' W 117°42'0 0.0
2017-Jun-16 11:30N 33°28' W 117°42'0 0.0
2017-Jun-16 11:00N 33°28' W 117°42'0 0.0
2017-Jun-16 10:30N 33°28' W 117°42'0 0.0
2017-Jun-16 10:00N 33°28' W 117°42'0 0.0
2017-Jun-16 09:30N 33°28' W 117°42'0 0.0
2017-Jun-16 09:00N 33°28' W 117°42'0 0.0
2017-Jun-16 08:30N 33°28' W 117°42'0 0.0
2017-Jun-16 08:01N 33°28' W 117°42'0 0.0
2017-Jun-16 07:31N 33°28' W 117°42'0 0.0
2017-Jun-16 07:00N 33°28' W 117°42'0 0.0
2017-Jun-16 06:31N 33°28' W 117°42'0 0.0
2017-Jun-16 06:00N 33°28' W 117°42'0 0.0
2017-Jun-16 05:30N 33°28' W 117°42'0 0.0
2017-Jun-16 05:00N 33°28' W 117°42'0 0.0
2017-Jun-16 04:30N 33°28' W 117°42'0 0.0
2017-Jun-16 04:00N 33°28' W 117°42'0 0.0
2017-Jun-16 03:30N 33°28' W 117°42'0 0.0
2017-Jun-16 02:49N 33°28' W 117°42'0 0.0
2017-Jun-16 02:30N 33°28' W 117°42'0 0.0
2017-Jun-16 02:01N 33°28' W 117°42'0 0.0
2017-Jun-16 01:30N 33°28' W 117°42'0 0.0
2017-Jun-16 01:00N 33°28' W 117°42'0 0.0
2017-Jun-16 00:31N 33°28' W 117°42'0 0.6
2017-Jun-16 00:00N 33°27' W 117°42'2 3.2
2017-Jun-15 23:30N 33°28' W 117°44'4 7.6
2017-Jun-15 23:01N 33°29' W 117°48'4 7.3
2017-Jun-15 22:30N 33°31' W 117°52'4 7.1
2017-Jun-15 22:00N 33°33' W 117°55'4 7.2
2017-Jun-15 21:30N 33°35' W 117°59'1 1.1
2017-Jun-15 21:00N 33°35' W 117°60'3 6.2
2017-Jun-15 20:31N 33°34' W 117°56'3 6.1
2017-Jun-15 20:01N 33°32' W 117°53'3 6.2
2017-Jun-15 19:31N 33°31' W 117°50'3 6.3
2017-Jun-15 19:00N 33°29' W 117°47'3 6.2
2017-Jun-15 18:30N 33°27' W 117°44'1 2.2
2017-Jun-15 18:01N 33°28' W 117°42'0 0.1
2017-Jun-15 17:31N 33°28' W 117°42'0 0.0
2017-Jun-15 17:00N 33°28' W 117°42'0 0.0
2017-Jun-15 16:30N 33°28' W 117°42'0 0.0
2017-Jun-15 16:01N 33°28' W 117°42'0 0.0
2017-Jun-15 15:30N 33°28' W 117°42'0 0.0
2017-Jun-13 22:42N 33°28' W 117°42'  
2017-Jun-09 23:23N 33°28' W 117°42'0 0.0
2017-Jun-09 22:19N 33°28' W 117°42'  

Dump ship's entire track history